Time;durP1;ratioP1;P1;durP2;ratioP2;P2;SDS_P1;SDS_P2;PMS_P1;PMS_P2;Temp;Humidity;BMP_temperature;BMP_pressure;BME280_temperature;BME280_humidity;BME280_pressure;Samples;Min_cycle;Max_cycle;Signal;HPM_P1;HPM_P2
2022/01/20 00:01:58;;;;;;;;;;;22.90;99.90;;;;;;5153545;27;20028;-72
2022/01/20 00:04:47;;;;;;;;;;;22.80;99.90;;;;;;5153828;27;19994;-72
2022/01/20 00:26:00;;;;;;;;;;;21.60;99.90;;;;;;5153297;27;19907;-72
2022/01/20 00:28:39;;;;;;;;;;;21.20;99.90;;;;;;5153481;27;19922;-73
2022/01/20 00:38:38;;;;;;;;;;;19.80;99.90;;;;;;5155508;27;19907;-72
2022/01/20 00:41:05;;;;;;;;;;;19.50;99.90;;;;;;5157340;27;19930;-72
2022/01/20 00:43:31;;;;;;;;;;;19.50;99.90;;;;;;5157559;27;19907;-72
2022/01/20 00:45:58;;;;;;;;;;;19.50;99.90;;;;;;5157399;27;19918;-72
2022/01/20 00:48:25;;;;;;;;;;;19.50;99.90;;;;;;5157380;27;19930;-72
2022/01/20 00:50:51;;;;;;;;;;;19.40;99.90;;;;;;5157225;27;20019;-72
2022/01/20 00:53:18;;;;;;;;;;;19.40;99.90;;;;;;5157112;27;19914;-72
2022/01/20 00:55:45;;;;;;;;;;;19.40;99.90;;;;;;5156838;27;19919;-72
2022/01/20 00:58:11;;;;;;;;;;;19.50;99.90;;;;;;5156966;27;20326;-72
2022/01/20 01:00:38;;;;;;;;;;;19.50;99.90;;;;;;5156770;27;20361;-72
2022/01/20 01:03:05;;;;;;;;;;;19.30;99.90;;;;;;5156328;27;20283;-71
2022/01/20 01:05:35;;;;;;;;;;;19.10;99.90;;;;;;5156991;27;20002;-72
2022/01/20 01:08:01;;;;;;;;;;;19.00;99.90;;;;;;5156682;27;19998;-72
2022/01/20 01:10:30;;;;;;;;;;;19.10;99.90;;;;;;5156727;27;19907;-70
2022/01/20 01:13:05;;;;;;;;;;;19.30;99.90;;;;;;5156756;27;19911;-71
2022/01/20 01:15:39;;;;;;;;;;;19.30;99.90;;;;;;5156920;27;19911;-71
2022/01/20 01:23:26;;;;;;;;;;;19.80;99.90;;;;;;5156608;27;19907;-71
2022/01/20 01:25:56;;;;;;;;;;;20.00;99.90;;;;;;5156103;27;20325;-71
2022/01/20 01:28:26;;;;;;;;;;;20.10;99.90;;;;;;5156758;27;19907;-71
2022/01/20 01:33:50;;;;;;;;;;;20.40;99.90;;;;;;5157009;27;20379;-70
2022/01/20 01:36:20;;;;;;;;;;;20.60;99.90;;;;;;5156082;27;19915;-70
2022/01/20 01:38:47;;;;;;;;;;;20.70;99.90;;;;;;5155922;27;19955;-71
2022/01/20 01:41:16;;;;;;;;;;;20.90;99.90;;;;;;5156206;27;19911;-70
2022/01/20 01:43:45;;;;;;;;;;;21.00;99.90;;;;;;5156462;27;20353;-70
2022/01/20 01:46:12;;;;;;;;;;;21.00;99.90;;;;;;5155970;27;20298;-70
2022/01/20 01:48:42;;;;;;;;;;;21.20;99.90;;;;;;5155431;27;19907;-70
2022/01/20 01:51:09;;;;;;;;;;;21.30;99.90;;;;;;5155951;27;19907;-71
2022/01/20 01:53:40;;;;;;;;;;;21.50;99.90;;;;;;5155440;27;19911;-70
2022/01/20 01:56:07;;;;;;;;;;;21.70;99.90;;;;;;5155656;27;19962;-70
2022/01/20 01:58:34;;;;;;;;;;;21.80;99.90;;;;;;5155869;27;19911;-70
2022/01/20 02:01:01;;;;;;;;;;;22.00;99.90;;;;;;5155597;27;20311;-70
2022/01/20 02:03:30;;;;;;;;;;;22.10;99.90;;;;;;5156215;27;19914;-71
2022/01/20 02:08:55;;;;;;;;;;;22.30;99.90;;;;;;5155502;27;19914;-70
2022/01/20 02:19:48;;;;;;;;;;;22.50;99.90;;;;;;5155709;27;20315;-71
2022/01/20 02:22:15;;;;;;;;;;;22.50;99.90;;;;;;5155569;27;19914;-71
2022/01/20 02:24:42;;;;;;;;;;;22.40;99.90;;;;;;5154660;27;19961;-71
2022/01/20 02:27:08;;;;;;;;;;;22.30;99.90;;;;;;5155096;27;19915;-71
2022/01/20 02:29:35;;;;;;;;;;;22.30;99.90;;;;;;5155357;27;19911;-71
2022/01/20 02:32:02;;;;;;;;;;;22.20;99.90;;;;;;5155331;27;20321;-71
2022/01/20 02:34:30;;;;;;;;;;;22.20;99.90;;;;;;5155289;27;20269;-71
2022/01/20 02:36:59;;;;;;;;;;;22.30;99.90;;;;;;5154870;27;20364;-71
2022/01/20 02:44:57;;;;;;;;;;;22.70;99.90;;;;;;5155376;27;19914;-71
2022/01/20 02:47:25;;;;;;;;;;;23.00;99.90;;;;;;5154911;27;19911;-71
2022/01/20 02:49:52;;;;;;;;;;;23.20;99.90;;;;;;5154747;27;19908;-71
2022/01/20 02:52:19;;;;;;;;;;;23.30;99.90;;;;;;5155024;27;19911;-70
2022/01/20 02:54:46;;;;;;;;;;;23.30;99.90;;;;;;5154004;27;19908;-70
2022/01/20 02:57:13;;;;;;;;;;;23.30;99.90;;;;;;5153445;27;19915;-70
2022/01/20 02:59:40;;;;;;;;;;;23.50;99.90;;;;;;5154650;27;20281;-70
2022/01/20 03:02:09;;;;;;;;;;;23.60;99.90;;;;;;5154029;27;20281;-70
2022/01/20 03:04:37;;;;;;;;;;;23.50;99.90;;;;;;5154645;27;19907;-70
2022/01/20 03:07:04;;;;;;;;;;;23.50;99.90;;;;;;5154625;27;20377;-70
2022/01/20 03:09:31;;;;;;;;;;;23.30;99.90;;;;;;5154419;27;19956;-71
2022/01/20 03:11:58;;;;;;;;;;;23.20;99.90;;;;;;5135761;27;19907;-70
2022/01/20 03:14:24;;;;;;;;;;;23.20;99.90;;;;;;5154633;27;20410;-71
2022/01/20 03:16:51;;;;;;;;;;;23.10;99.90;;;;;;5154240;27;20384;-70
2022/01/20 03:19:17;;;;;;;;;;;23.20;99.90;;;;;;5154268;27;19907;-70
2022/01/20 03:21:44;;;;;;;;;;;23.20;99.90;;;;;;5154574;27;19946;-71
2022/01/20 03:24:11;;;;;;;;;;;23.30;99.90;;;;;;5154059;27;19913;-70
2022/01/20 03:26:38;;;;;;;;;;;23.30;99.90;;;;;;5153973;27;19914;-69
2022/01/20 03:29:05;;;;;;;;;;;23.20;99.90;;;;;;5135379;27;19959;-70
2022/01/20 03:31:32;;;;;;;;;;;23.20;99.90;;;;;;5153722;27;19911;-69
2022/01/20 03:33:59;;;;;;;;;;;23.20;99.90;;;;;;5153727;27;19919;-69
2022/01/20 03:36:26;;;;;;;;;;;23.00;99.90;;;;;;5154006;27;19915;-69
2022/01/20 03:38:53;;;;;;;;;;;23.00;99.90;;;;;;5153813;27;19914;-69
2022/01/20 03:41:20;;;;;;;;;;;23.10;99.90;;;;;;5153816;27;20358;-70
2022/01/20 03:43:46;;;;;;;;;;;23.20;99.90;;;;;;5153752;27;19907;-70
2022/01/20 03:46:13;;;;;;;;;;;23.20;99.90;;;;;;5154276;27;19911;-69
2022/01/20 03:48:49;;;;;;;;;;;23.20;99.90;;;;;;5153795;27;19918;-70
2022/01/20 03:51:20;;;;;;;;;;;23.00;99.90;;;;;;5154037;27;19911;-70
2022/01/20 03:53:48;;;;;;;;;;;23.20;99.90;;;;;;5153475;27;19907;-70
2022/01/20 03:56:15;;;;;;;;;;;23.30;99.90;;;;;;5153575;27;19998;-70
2022/01/20 03:58:42;;;;;;;;;;;23.40;99.90;;;;;;5153580;27;19914;-70
2022/01/20 04:01:08;;;;;;;;;;;23.50;99.90;;;;;;5153409;27;19914;-70
2022/01/20 04:03:35;;;;;;;;;;;23.60;99.90;;;;;;5153595;27;19907;-70
2022/01/20 04:06:02;;;;;;;;;;;23.40;99.90;;;;;;5134799;27;19907;-70
2022/01/20 04:08:32;;;;;;;;;;;23.30;99.90;;;;;;5153633;27;19913;-70
2022/01/20 04:11:00;;;;;;;;;;;23.20;99.90;;;;;;5153518;27;19953;-70
2022/01/20 04:13:31;;;;;;;;;;;23.10;99.90;;;;;;5157321;27;20357;-70
2022/01/20 04:16:00;;;;;;;;;;;22.90;99.90;;;;;;5157766;27;20258;-71
2022/01/20 04:18:28;;;;;;;;;;;22.80;99.90;;;;;;5157901;27;19908;-70
2022/01/20 04:20:55;;;;;;;;;;;22.50;99.90;;;;;;5157330;27;19967;-68
2022/01/20 04:23:22;;;;;;;;;;;22.50;99.90;;;;;;5157575;27;20002;-70
2022/01/20 04:25:48;;;;;;;;;;;22.50;99.90;;;;;;5157557;27;19960;-69
2022/01/20 04:28:15;;;;;;;;;;;22.50;99.90;;;;;;5157855;27;20353;-69
2022/01/20 04:30:45;;;;;;;;;;;22.50;99.90;;;;;;5154887;27;19925;-70
2022/01/20 04:33:11;;;;;;;;;;;22.50;99.90;;;;;;5147578;27;19911;-70
2022/01/20 04:35:38;;;;;;;;;;;22.50;99.90;;;;;;5136853;27;19915;-71
2022/01/20 04:38:06;;;;;;;;;;;22.50;99.90;;;;;;5136626;27;19914;-71
2022/01/20 04:40:39;;;;;;;;;;;22.50;99.90;;;;;;5136608;27;19907;-70
2022/01/20 04:43:06;;;;;;;;;;;22.60;99.90;;;;;;5136465;27;19907;-71
2022/01/20 04:45:38;;;;;;;;;;;22.50;99.90;;;;;;5136627;27;19908;-70
2022/01/20 04:59:04;;;;;;;;;;;22.20;99.90;;;;;;5136586;27;20281;-70
2022/01/20 05:01:31;;;;;;;;;;;22.20;99.90;;;;;;5136245;27;20361;-70
2022/01/20 05:03:58;;;;;;;;;;;22.20;99.90;;;;;;5136046;27;19911;-70
2022/01/20 05:06:24;;;;;;;;;;;22.20;99.90;;;;;;5136240;27;20269;-70
2022/01/20 05:08:52;;;;;;;;;;;22.10;99.90;;;;;;5135799;27;19908;-70
2022/01/20 05:11:19;;;;;;;;;;;22.10;99.90;;;;;;5135984;27;19908;-70
2022/01/20 05:13:46;;;;;;;;;;;22.20;99.90;;;;;;5135998;27;19918;-71
2022/01/20 05:16:13;;;;;;;;;;;22.20;99.90;;;;;;5135999;27;19916;-70
2022/01/20 05:18:40;;;;;;;;;;;22.30;99.90;;;;;;5135808;27;20243;-70
2022/01/20 05:21:06;;;;;;;;;;;22.20;99.90;;;;;;5136000;27;19907;-71
2022/01/20 05:23:33;;;;;;;;;;;22.10;99.90;;;;;;5134691;27;19912;-71
2022/01/20 05:26:00;;;;;;;;;;;22.00;99.90;;;;;;5135546;27;20315;-70
2022/01/20 05:28:26;;;;;;;;;;;22.00;99.90;;;;;;5135850;27;19915;-70
2022/01/20 05:30:53;;;;;;;;;;;22.10;99.90;;;;;;5135416;27;19907;-68
2022/01/20 05:33:20;;;;;;;;;;;22.00;99.90;;;;;;5135669;27;19908;-70
2022/01/20 05:40:01;;;;;;;;;;;22.10;99.90;;;;;;5100020;27;19930;-69
2022/01/20 05:42:27;;;;;;;;;;;22.10;99.90;;;;;;5089398;28;20012;-70
2022/01/20 05:44:54;;;;;;;;;;;22.00;99.90;;;;;;5089415;28;19959;-69
2022/01/20 05:47:31;;;;;;;;;;;22.00;99.90;;;;;;5089708;28;19909;-69
2022/01/20 05:49:58;;;;;;;;;;;22.00;99.90;;;;;;5089184;28;20337;-69
2022/01/20 05:52:24;;;;;;;;;;;22.00;99.90;;;;;;5086977;28;19912;-70
2022/01/20 05:54:51;;;;;;;;;;;22.00;99.90;;;;;;5086752;28;19919;-70
2022/01/20 05:57:18;;;;;;;;;;;22.10;99.90;;;;;;5087560;28;19918;-69
2022/01/20 05:59:44;;;;;;;;;;;22.20;99.90;;;;;;5087054;28;19983;-70
2022/01/20 06:02:24;;;;;;;;;;;22.20;99.90;;;;;;5087021;28;19948;-70
2022/01/20 06:04:51;;;;;;;;;;;22.20;99.90;;;;;;5086640;28;19962;-69
2022/01/20 06:07:19;;;;;;;;;;;22.30;99.90;;;;;;5086975;28;20011;-70
2022/01/20 06:09:46;;;;;;;;;;;22.40;99.90;;;;;;5086708;28;19908;-69
2022/01/20 06:12:13;;;;;;;;;;;22.30;99.90;;;;;;5086967;28;19999;-70
2022/01/20 06:14:40;;;;;;;;;;;22.30;99.90;;;;;;5086923;28;20671;-69
2022/01/20 06:17:06;;;;;;;;;;;22.20;99.90;;;;;;5086832;28;19918;-69
2022/01/20 06:19:33;;;;;;;;;;;22.00;99.90;;;;;;5086753;28;20281;-69
2022/01/20 06:22:00;;;;;;;;;;;22.10;99.90;;;;;;5086586;28;19915;-69
2022/01/20 06:24:26;;;;;;;;;;;22.10;99.90;;;;;;5086187;28;19940;-71
2022/01/20 06:26:53;;;;;;;;;;;22.20;99.90;;;;;;5086853;28;20274;-70
2022/01/20 06:29:19;;;;;;;;;;;22.20;99.90;;;;;;5086662;28;19955;-69
2022/01/20 06:31:46;;;;;;;;;;;22.20;99.90;;;;;;5086243;28;19951;-70
2022/01/20 06:34:13;;;;;;;;;;;22.30;99.90;;;;;;5087101;28;20063;-69
2022/01/20 06:36:39;;;;;;;;;;;22.30;99.90;;;;;;5086489;28;19913;-69
2022/01/20 06:39:06;;;;;;;;;;;22.40;99.90;;;;;;5086397;28;20298;-69
2022/01/20 06:41:37;;;;;;;;;;;22.40;99.90;;;;;;5086325;28;19908;-68
2022/01/20 06:44:04;;;;;;;;;;;22.40;99.90;;;;;;5085867;28;19955;-69
2022/01/20 06:46:30;;;;;;;;;;;22.40;99.90;;;;;;5086518;28;19908;-69
2022/01/20 06:48:57;;;;;;;;;;;22.40;99.90;;;;;;5086257;28;19917;-69
2022/01/20 06:51:24;;;;;;;;;;;22.30;99.90;;;;;;5072045;28;19916;-68
2022/01/20 06:53:50;;;;;;;;;;;22.30;99.90;;;;;;5072085;28;20271;-69
2022/01/20 06:56:17;;;;;;;;;;;22.40;99.90;;;;;;5072444;28;19909;-69
2022/01/20 06:58:43;;;;;;;;;;;22.40;99.90;;;;;;5072451;28;19921;-71
2022/01/20 07:01:10;;;;;;;;;;;22.40;99.90;;;;;;5072631;28;19916;-69
2022/01/20 07:03:37;;;;;;;;;;;22.40;99.90;;;;;;5072745;28;20366;-69
2022/01/20 07:06:03;;;;;;;;;;;22.40;99.90;;;;;;5071248;28;19960;-71
2022/01/20 07:08:30;;;;;;;;;;;22.50;99.90;;;;;;5072390;28;20050;-69
2022/01/20 07:10:57;;;;;;;;;;;22.50;99.90;;;;;;5071880;28;20337;-71
2022/01/20 07:13:23;;;;;;;;;;;22.50;99.90;;;;;;5072566;28;19908;-69
2022/01/20 07:15:50;;;;;;;;;;;22.50;99.90;;;;;;5072268;28;19916;-70
2022/01/20 07:18:17;;;;;;;;;;;22.50;99.90;;;;;;5072309;28;20290;-69
2022/01/20 07:20:44;;;;;;;;;;;22.50;99.90;;;;;;5072051;28;19917;-70
2022/01/20 07:23:10;;;;;;;;;;;22.40;99.90;;;;;;5071633;28;19920;-69
2022/01/20 07:25:37;;;;;;;;;;;22.20;99.90;;;;;;5072058;28;19939;-69
2022/01/20 07:28:04;;;;;;;;;;;22.30;99.90;;;;;;5071974;28;20462;-69
2022/01/20 07:30:30;;;;;;;;;;;22.30;99.90;;;;;;5072016;28;19913;-69
2022/01/20 07:32:59;;;;;;;;;;;22.20;99.90;;;;;;5071965;28;19913;-70
2022/01/20 07:35:26;;;;;;;;;;;22.10;99.90;;;;;;5071440;28;19912;-70
2022/01/20 07:37:53;;;;;;;;;;;22.20;99.90;;;;;;5071465;28;20389;-69
2022/01/20 07:40:19;;;;;;;;;;;22.00;99.90;;;;;;5071830;28;20369;-71
2022/01/20 07:42:46;;;;;;;;;;;21.90;99.90;;;;;;5071725;28;19908;-69
2022/01/20 07:45:13;;;;;;;;;;;21.70;99.90;;;;;;5071885;28;20538;-70
2022/01/20 07:47:39;;;;;;;;;;;21.70;99.90;;;;;;5071725;28;20367;-70
2022/01/20 07:50:06;;;;;;;;;;;21.70;99.90;;;;;;5070909;28;20379;-70
2022/01/20 07:52:33;;;;;;;;;;;21.60;99.90;;;;;;5071664;28;19957;-72
2022/01/20 07:55:00;;;;;;;;;;;21.60;99.90;;;;;;5071005;28;19919;-70
2022/01/20 07:57:26;;;;;;;;;;;21.60;99.90;;;;;;5071647;28;19920;-71
2022/01/20 07:59:53;;;;;;;;;;;21.60;99.90;;;;;;5071358;28;19924;-70
2022/01/20 08:02:19;;;;;;;;;;;21.60;99.90;;;;;;5070219;28;19909;-69
2022/01/20 08:04:46;;;;;;;;;;;21.70;99.90;;;;;;5071349;28;20328;-69
2022/01/20 08:07:13;;;;;;;;;;;21.70;99.90;;;;;;5073333;28;19951;-70
2022/01/20 08:09:40;;;;;;;;;;;21.60;99.90;;;;;;5073200;28;19962;-71
2022/01/20 08:12:07;;;;;;;;;;;21.60;99.90;;;;;;5073204;28;20003;-70
2022/01/20 08:14:33;;;;;;;;;;;21.50;99.90;;;;;;5073240;28;20401;-70
2022/01/20 08:17:00;;;;;;;;;;;21.50;99.90;;;;;;5072872;28;19917;-70
2022/01/20 08:19:27;;;;;;;;;;;21.50;99.90;;;;;;5073086;28;19916;-69
2022/01/20 08:21:53;;;;;;;;;;;21.50;99.90;;;;;;5072676;28;19991;-69
2022/01/20 08:24:20;;;;;;;;;;;21.50;99.90;;;;;;5072887;28;19912;-71
2022/01/20 08:26:47;;;;;;;;;;;21.50;99.90;;;;;;5072981;28;20255;-69
2022/01/20 08:29:13;;;;;;;;;;;21.50;99.90;;;;;;5073265;28;20362;-71
2022/01/20 08:31:40;;;;;;;;;;;21.50;99.90;;;;;;5073231;28;19919;-69
2022/01/20 08:34:06;;;;;;;;;;;21.40;99.90;;;;;;5072903;28;19909;-68
2022/01/20 08:36:33;;;;;;;;;;;21.40;99.90;;;;;;5072912;28;19916;-72
2022/01/20 08:39:00;;;;;;;;;;;21.40;99.90;;;;;;5073025;28;19924;-70
2022/01/20 08:41:26;;;;;;;;;;;21.40;99.90;;;;;;5073032;28;19951;-69
2022/01/20 08:43:53;;;;;;;;;;;21.40;99.90;;;;;;5072587;28;19919;-69
2022/01/20 08:46:21;;;;;;;;;;;21.40;99.90;;;;;;5072624;28;19938;-71
2022/01/20 08:48:48;;;;;;;;;;;21.40;99.90;;;;;;5071995;28;19916;-70
2022/01/20 08:51:15;;;;;;;;;;;21.40;99.90;;;;;;5072845;28;19916;-68
2022/01/20 08:53:41;;;;;;;;;;;21.40;99.90;;;;;;5072778;28;19915;-69
2022/01/20 08:56:08;;;;;;;;;;;21.30;99.90;;;;;;5072474;28;20087;-69
2022/01/20 08:58:35;;;;;;;;;;;21.30;99.90;;;;;;5072725;28;20318;-69
2022/01/20 09:01:03;;;;;;;;;;;21.20;99.90;;;;;;5073017;28;20346;-69
2022/01/20 09:03:32;;;;;;;;;;;21.20;99.90;;;;;;5072828;28;19934;-69
2022/01/20 09:05:58;;;;;;;;;;;21.10;99.90;;;;;;5072376;28;20429;-70
2022/01/20 09:08:25;;;;;;;;;;;21.10;99.90;;;;;;5072614;28;20270;-69
2022/01/20 09:10:55;;;;;;;;;;;21.00;99.90;;;;;;5072635;28;19909;-69
2022/01/20 09:16:06;;;;;;;;;;;20.90;99.90;;;;;;5072567;28;19919;-68
2022/01/20 09:18:33;;;;;;;;;;;21.00;99.90;;;;;;5072275;28;19942;-68
2022/01/20 09:21:00;;;;;;;;;;;21.00;99.90;;;;;;5072386;28;19948;-68
2022/01/20 09:23:26;;;;;;;;;;;21.00;99.90;;;;;;5072366;28;20348;-68
2022/01/20 09:25:53;;;;;;;;;;;20.90;99.90;;;;;;5072367;28;19908;-68
2022/01/20 09:28:20;;;;;;;;;;;20.90;99.90;;;;;;5072366;28;19916;-68
2022/01/20 09:30:48;;;;;;;;;;;20.90;99.90;;;;;;5065651;28;19921;-70
2022/01/20 09:33:24;;;;;;;;;;;20.90;99.90;;;;;;5030846;28;19924;-68
2022/01/20 09:35:51;;;;;;;;;;;20.90;99.90;;;;;;5030192;28;19919;-70
2022/01/20 09:38:17;;;;;;;;;;;20.80;99.90;;;;;;5029676;28;19925;-70
2022/01/20 09:40:44;;;;;;;;;;;20.80;99.90;;;;;;5030158;28;19910;-69
2022/01/20 09:43:14;;;;;;;;;;;20.80;99.90;;;;;;5030213;28;19913;-71
2022/01/20 09:45:41;;;;;;;;;;;20.80;99.90;;;;;;5030269;28;19917;-71
2022/01/20 09:48:09;;;;;;;;;;;20.90;99.90;;;;;;5029704;28;19910;-70
2022/01/20 09:50:35;;;;;;;;;;;20.80;99.90;;;;;;5062114;28;19932;-69
2022/01/20 09:53:02;;;;;;;;;;;20.80;99.90;;;;;;5029753;28;19909;-70
2022/01/20 09:55:30;;;;;;;;;;;20.80;99.90;;;;;;5030215;28;20383;-70
2022/01/20 09:57:57;;;;;;;;;;;20.80;99.90;;;;;;5030210;28;20015;-71
2022/01/20 10:00:23;;;;;;;;;;;20.80;99.90;;;;;;5029984;28;20375;-70
2022/01/20 10:03:06;;;;;;;;;;;20.80;99.90;;;;;;5030156;28;19917;-69
2022/01/20 10:05:32;;;;;;;;;;;20.90;99.90;;;;;;5030041;28;19913;-69
2022/01/20 10:08:04;;;;;;;;;;;20.90;99.90;;;;;;5029362;28;20004;-70
2022/01/20 10:10:43;;;;;;;;;;;20.90;99.90;;;;;;5030042;28;19913;-69
2022/01/20 10:13:11;;;;;;;;;;;20.90;99.90;;;;;;5029882;28;19917;-70
2022/01/20 10:15:38;;;;;;;;;;;20.90;99.90;;;;;;5030010;28;20020;-68
2022/01/20 10:18:09;;;;;;;;;;;20.90;99.90;;;;;;5029546;28;19921;-70
2022/01/20 10:20:37;;;;;;;;;;;20.90;99.90;;;;;;5029688;28;19916;-71
2022/01/20 10:23:04;;;;;;;;;;;20.90;99.90;;;;;;5029541;28;20455;-70
2022/01/20 10:25:35;;;;;;;;;;;20.90;99.90;;;;;;5031286;28;20271;-71
2022/01/20 10:28:02;;;;;;;;;;;20.90;99.90;;;;;;5033419;28;20326;-71
2022/01/20 10:30:29;;;;;;;;;;;20.90;99.90;;;;;;5033655;28;19958;-69
2022/01/20 10:32:59;;;;;;;;;;;20.90;99.90;;;;;;5033734;28;19909;-70
2022/01/20 10:35:27;;;;;;;;;;;20.90;99.90;;;;;;5033316;28;19909;-71
2022/01/20 10:38:14;;;;;;;;;;;20.80;99.90;;;;;;5032595;28;19995;-70
2022/01/20 10:40:48;;;;;;;;;;;20.80;99.90;;;;;;5033302;28;19913;-70
2022/01/20 10:43:21;;;;;;;;;;;20.80;99.90;;;;;;5033483;28;19909;-71
2022/01/20 10:45:48;;;;;;;;;;;20.80;99.90;;;;;;5033294;28;19920;-71
2022/01/20 10:48:18;;;;;;;;;;;20.80;99.90;;;;;;5033356;28;19913;-70
2022/01/20 10:50:45;;;;;;;;;;;20.80;99.90;;;;;;5033106;28;19975;-71
2022/01/20 10:53:21;;;;;;;;;;;20.70;99.90;;;;;;5032582;28;19998;-69
2022/01/20 10:55:48;;;;;;;;;;;20.70;99.90;;;;;;5032921;28;20027;-70
2022/01/20 10:58:17;;;;;;;;;;;20.70;99.90;;;;;;5033005;28;20012;-70
2022/01/20 11:00:44;;;;;;;;;;;20.60;99.90;;;;;;5033421;28;19921;-69
2022/01/20 11:03:11;;;;;;;;;;;20.50;99.90;;;;;;5033021;28;20363;-71
2022/01/20 11:05:39;;;;;;;;;;;20.50;99.90;;;;;;5032550;28;19999;-70
2022/01/20 11:08:07;;;;;;;;;;;20.50;99.90;;;;;;5032715;28;20021;-72
2022/01/20 11:10:34;;;;;;;;;;;20.40;99.90;;;;;;5032874;28;19913;-71
2022/01/20 11:13:01;;;;;;;;;;;20.40;99.90;;;;;;5032970;28;19921;-70
2022/01/20 11:15:29;;;;;;;;;;;20.30;99.90;;;;;;5032952;28;19948;-69
2022/01/20 11:17:57;;;;;;;;;;;20.40;99.90;;;;;;5032386;28;19914;-70
2022/01/20 11:20:26;;;;;;;;;;;20.40;99.90;;;;;;5032702;28;19910;-70
2022/01/20 11:22:57;;;;;;;;;;;20.40;99.90;;;;;;5031020;28;20303;-68
2022/01/20 11:25:25;;;;;;;;;;;20.40;99.90;;;;;;5032715;28;19909;-71
2022/01/20 11:28:01;;;;;;;;;;;20.40;99.90;;;;;;5032301;28;19999;-71
2022/01/20 11:30:29;;;;;;;;;;;20.40;99.90;;;;;;5032480;28;20271;-69
2022/01/20 11:33:06;;;;;;;;;;;20.30;99.90;;;;;;5032606;28;19916;-69
2022/01/20 11:35:56;;;;;;;;;;;20.20;99.90;;;;;;5031807;28;19916;-70
2022/01/20 11:38:24;;;;;;;;;;;20.10;99.90;;;;;;5032281;28;19932;-68
2022/01/20 11:40:58;;;;;;;;;;;20.00;99.90;;;;;;5032696;28;19917;-69
2022/01/20 11:43:35;;;;;;;;;;;20.00;99.90;;;;;;5032298;28;19912;-69
2022/01/20 11:46:15;;;;;;;;;;;19.90;99.90;;;;;;5031965;28;19909;-70
2022/01/20 11:49:00;;;;;;;;;;;19.90;99.90;;;;;;5032316;28;19913;-71
2022/01/20 11:51:28;;;;;;;;;;;19.90;99.90;;;;;;5031685;28;19913;-69
2022/01/20 11:54:02;;;;;;;;;;;20.00;99.90;;;;;;5031907;28;19939;-71
2022/01/20 11:56:34;;;;;;;;;;;20.00;99.90;;;;;;5032130;28;19913;-70
2022/01/20 11:59:01;;;;;;;;;;;20.00;99.90;;;;;;5031954;28;20015;-69
2022/01/20 12:01:30;;;;;;;;;;;20.10;99.90;;;;;;5031999;28;19909;-69
2022/01/20 12:03:58;;;;;;;;;;;20.10;99.90;;;;;;5031871;28;19971;-69
2022/01/20 12:06:25;;;;;;;;;;;20.10;99.90;;;;;;5031359;28;19917;-69
2022/01/20 12:08:56;;;;;;;;;;;20.10;99.90;;;;;;5031874;28;19909;-69
2022/01/20 12:11:45;;;;;;;;;;;20.10;99.90;;;;;;5031505;28;19915;-69
2022/01/20 12:14:12;;;;;;;;;;;20.10;99.90;;;;;;5031800;28;20351;-69
2022/01/20 12:16:40;;;;;;;;;;;20.10;99.90;;;;;;5031938;28;20068;-69
2022/01/20 12:19:09;;;;;;;;;;;20.10;99.90;;;;;;5031798;28;19923;-69
2022/01/20 12:21:36;;;;;;;;;;;20.20;99.90;;;;;;5031032;28;19952;-69
2022/01/20 12:24:03;;;;;;;;;;;20.20;99.90;;;;;;5031137;28;20621;-69
2022/01/20 12:26:36;;;;;;;;;;;20.20;99.90;;;;;;5031547;28;19935;-69
2022/01/20 12:29:04;;;;;;;;;;;20.20;99.90;;;;;;5031426;28;19913;-68
2022/01/20 12:31:32;;;;;;;;;;;20.20;99.90;;;;;;5031396;28;20011;-70
2022/01/20 12:33:59;;;;;;;;;;;20.30;99.90;;;;;;5031022;28;19915;-69
2022/01/20 12:36:25;;;;;;;;;;;20.20;99.90;;;;;;5030424;28;19996;-70
2022/01/20 12:38:53;;;;;;;;;;;20.20;99.90;;;;;;5031074;28;19948;-69
2022/01/20 12:41:23;;;;;;;;;;;20.30;99.90;;;;;;5031376;28;20000;-69
2022/01/20 12:44:07;;;;;;;;;;;20.30;99.90;;;;;;5030979;28;19913;-69
2022/01/20 12:46:36;;;;;;;;;;;20.30;99.90;;;;;;5031100;28;19913;-70
2022/01/20 12:49:09;;;;;;;;;;;20.30;99.90;;;;;;5030449;28;19909;-69
2022/01/20 12:51:46;;;;;;;;;;;20.40;99.90;;;;;;5030493;28;19913;-70
2022/01/20 12:54:13;;;;;;;;;;;20.50;99.90;;;;;;5031390;28;20007;-69
2022/01/20 12:56:50;;;;;;;;;;;20.40;99.90;;;;;;5031104;28;20443;-68
2022/01/20 12:59:22;;;;;;;;;;;20.40;99.90;;;;;;5030983;28;19921;-70
2022/01/20 13:01:49;;;;;;;;;;;20.50;99.90;;;;;;5030781;28;19913;-70
2022/01/20 13:04:17;;;;;;;;;;;20.50;99.90;;;;;;5030771;28;19917;-70
2022/01/20 13:06:47;;;;;;;;;;;20.50;99.90;;;;;;5030426;28;19944;-69
2022/01/20 13:09:14;;;;;;;;;;;20.50;99.90;;;;;;5030998;28;19909;-71
2022/01/20 13:11:44;;;;;;;;;;;20.50;99.90;;;;;;5030776;28;19913;-70
2022/01/20 13:14:11;;;;;;;;;;;20.50;99.90;;;;;;5030800;28;20312;-69
2022/01/20 13:16:58;;;;;;;;;;;20.40;99.90;;;;;;5030401;28;20012;-68
2022/01/20 13:19:38;;;;;;;;;;;20.40;99.90;;;;;;5030426;28;19967;-69
2022/01/20 13:22:07;;;;;;;;;;;20.40;99.90;;;;;;5030291;28;19953;-69
2022/01/20 13:24:35;;;;;;;;;;;20.40;99.90;;;;;;5030562;28;20341;-70
2022/01/20 13:27:03;;;;;;;;;;;20.40;99.90;;;;;;5030483;28;20319;-71
2022/01/20 13:29:41;;;;;;;;;;;20.40;99.90;;;;;;5030167;28;19910;-69
2022/01/20 13:32:08;;;;;;;;;;;20.40;99.90;;;;;;5030387;28;19919;-68
2022/01/20 13:34:34;;;;;;;;;;;20.30;99.90;;;;;;5030437;28;20376;-69
2022/01/20 13:37:02;;;;;;;;;;;20.30;99.90;;;;;;5030465;28;20000;-69
2022/01/20 13:39:29;;;;;;;;;;;20.30;99.90;;;;;;5030122;28;20287;-70
2022/01/20 13:45:02;;;;;;;;;;;20.30;99.90;;;;;;5029936;28;20364;-70
2022/01/20 13:45:14;;;;;;;;;;;20.30;99.90;;;;;;5029111;28;20376;-70
2022/01/20 13:47:57;;;;;;;;;;;20.20;99.90;;;;;;5030270;28;20406;-69
2022/01/20 13:50:24;;;;;;;;;;;20.20;99.90;;;;;;5030329;28;20356;-71
2022/01/20 13:52:51;;;;;;;;;;;20.20;99.90;;;;;;5030465;28;19935;-68
2022/01/20 13:55:22;;;;;;;;;;;20.20;99.90;;;;;;5029908;28;19917;-70
2022/01/20 13:57:48;;;;;;;;;;;20.20;99.90;;;;;;5031583;28;19913;-69
2022/01/20 14:00:16;;;;;;;;;;;20.20;99.90;;;;;;5033643;28;19936;-69
2022/01/20 14:02:47;;;;;;;;;;;20.20;99.90;;;;;;5036430;28;20275;-69
2022/01/20 14:05:14;;;;;;;;;;;20.20;99.90;;;;;;5036088;28;19988;-68
2022/01/20 14:07:41;;;;;;;;;;;20.20;99.90;;;;;;5036214;28;19913;-69
2022/01/20 14:10:08;;;;;;;;;;;20.20;99.90;;;;;;5036106;28;19909;-69
2022/01/20 14:12:35;;;;;;;;;;;20.20;99.90;;;;;;5036182;28;19964;-68
2022/01/20 14:15:01;;;;;;;;;;;20.20;99.90;;;;;;5036147;28;19940;-68
2022/01/20 14:17:33;;;;;;;;;;;20.20;99.90;;;;;;5036218;28;19911;-68
2022/01/20 14:20:06;;;;;;;;;;;20.20;99.90;;;;;;5035729;28;19917;-70
2022/01/20 14:22:33;;;;;;;;;;;20.20;99.90;;;;;;5036024;28;19909;-68
2022/01/20 14:24:59;;;;;;;;;;;20.10;99.90;;;;;;5036154;28;19909;-68
2022/01/20 14:27:26;;;;;;;;;;;20.10;99.90;;;;;;5036143;28;20003;-68
2022/01/20 14:29:53;;;;;;;;;;;20.20;99.90;;;;;;5035561;28;19980;-68
2022/01/20 14:32:19;;;;;;;;;;;20.20;99.90;;;;;;5035760;28;19909;-68
2022/01/20 14:34:46;;;;;;;;;;;20.20;99.90;;;;;;5035595;28;19995;-68
2022/01/20 14:37:13;;;;;;;;;;;20.20;99.90;;;;;;5035691;28;19909;-68
2022/01/20 14:39:39;;;;;;;;;;;20.20;99.90;;;;;;5035360;28;19944;-69
2022/01/20 14:42:07;;;;;;;;;;;20.20;99.90;;;;;;5034251;28;19940;-68
2022/01/20 14:44:35;;;;;;;;;;;20.20;99.90;;;;;;5035723;28;19909;-68
2022/01/20 14:47:03;;;;;;;;;;;20.20;99.90;;;;;;5035785;28;19909;-69
2022/01/20 14:49:30;;;;;;;;;;;20.20;99.90;;;;;;5035336;28;19982;-69
2022/01/20 14:51:58;;;;;;;;;;;20.20;99.90;;;;;;5035116;28;19920;-69
2022/01/20 14:54:24;;;;;;;;;;;20.10;99.90;;;;;;5035442;28;19910;-68
2022/01/20 14:56:51;;;;;;;;;;;20.10;99.90;;;;;;5035370;28;20360;-68
2022/01/20 14:59:18;;;;;;;;;;;20.10;99.90;;;;;;5035300;28;19917;-69
2022/01/20 15:01:44;;;;;;;;;;;20.10;99.90;;;;;;5035275;28;19940;-69
2022/01/20 15:04:11;;;;;;;;;;;20.10;99.90;;;;;;5034909;28;19913;-69
2022/01/20 15:06:38;;;;;;;;;;;20.10;99.90;;;;;;5035292;28;19909;-69
2022/01/20 15:09:05;;;;;;;;;;;20.00;99.90;;;;;;5035238;28;19955;-68
2022/01/20 15:11:35;;;;;;;;;;;20.00;99.90;;;;;;5034531;28;19909;-69
2022/01/20 15:14:03;;;;;;;;;;;20.00;99.90;;;;;;5034765;28;19909;-69
2022/01/20 15:16:29;;;;;;;;;;;20.00;99.90;;;;;;5034799;28;19910;-68
2022/01/20 15:18:57;;;;;;;;;;;20.00;99.90;;;;;;5034704;28;19917;-68
2022/01/20 15:21:24;;;;;;;;;;;20.10;99.90;;;;;;5034985;28;19970;-68
2022/01/20 15:23:51;;;;;;;;;;;20.20;99.90;;;;;;5034575;28;19913;-69
2022/01/20 15:26:18;;;;;;;;;;;20.20;99.90;;;;;;5034809;28;19954;-69
2022/01/20 15:28:48;;;;;;;;;;;20.20;99.90;;;;;;5034824;28;20020;-68
2022/01/20 15:31:15;;;;;;;;;;;20.20;99.90;;;;;;5034609;28;19916;-70
2022/01/20 15:33:43;;;;;;;;;;;20.20;99.90;;;;;;5034572;28;19917;-69